createdAt,value
2023-10-23T00:04:53.787Z,6.50
2023-10-23T00:10:15.590Z,6.90
2023-10-23T00:15:37.321Z,6.93
2023-10-23T00:20:58.998Z,6.47
2023-10-23T00:26:20.649Z,6.53
2023-10-23T00:31:42.374Z,6.90
2023-10-23T00:37:04.109Z,6.75
2023-10-23T00:42:25.750Z,6.80
2023-10-23T00:47:47.870Z,7.30
2023-10-23T00:53:09.566Z,6.50
2023-10-23T00:58:32.649Z,7.47
2023-10-23T01:03:54.309Z,6.32
2023-10-23T01:09:15.921Z,6.75
2023-10-23T01:14:37.744Z,7.15
2023-10-23T01:19:59.502Z,7.18
2023-10-23T01:25:21.105Z,6.70
2023-10-23T01:30:42.734Z,6.55
2023-10-23T01:36:04.358Z,6.75
2023-10-23T01:41:25.921Z,6.85
2023-10-23T01:46:47.537Z,6.65
2023-10-23T01:52:09.128Z,6.55
2023-10-23T01:57:30.790Z,7.57
2023-10-23T02:02:52.450Z,7.10
2023-10-23T02:08:14.065Z,7.95
2023-10-23T02:13:36.307Z,6.70
2023-10-23T02:18:57.879Z,7.18
2023-10-23T02:24:20.825Z,7.70
2023-10-23T02:29:42.648Z,7.72
2023-10-23T02:35:04.575Z,7.22
2023-10-23T02:40:26.237Z,7.88
2023-10-23T02:45:48.352Z,7.93
2023-10-23T02:51:10.003Z,7.75
2023-10-23T02:56:33.199Z,8.27
2023-10-23T03:01:55.165Z,7.63
2023-10-23T03:07:16.854Z,8.65
2023-10-23T03:12:38.442Z,8.38
2023-10-23T03:18:04.702Z,8.52
2023-10-23T03:23:26.694Z,8.50
2023-10-23T03:28:48.303Z,7.50
2023-10-23T03:34:09.993Z,7.70
2023-10-23T03:39:31.749Z,7.50
2023-10-23T03:44:53.348Z,7.65
2023-10-23T03:50:15.067Z,7.53
2023-10-23T03:55:38.208Z,8.05
2023-10-23T04:00:59.925Z,8.13
2023-10-23T04:06:21.761Z,7.00
2023-10-23T04:11:43.369Z,7.40
2023-10-23T04:17:05.324Z,7.68
2023-10-23T04:22:26.937Z,7.72
2023-10-23T04:27:48.622Z,7.10
2023-10-23T04:33:10.324Z,7.22
2023-10-23T04:38:32.695Z,7.82
2023-10-23T04:43:54.868Z,8.07
2023-10-23T04:49:16.510Z,10.60
2023-10-23T04:54:38.126Z,8.02
2023-10-23T05:00:00.243Z,7.55
2023-10-23T05:05:22.357Z,7.43
2023-10-23T05:10:44.025Z,6.55
2023-10-23T05:16:06.725Z,7.35
2023-10-23T05:21:28.602Z,7.18
2023-10-23T05:26:50.216Z,7.38
2023-10-23T05:32:11.814Z,7.18
2023-10-23T05:37:36.604Z,8.02
2023-10-23T05:42:58.402Z,8.10
2023-10-23T05:48:20.081Z,7.97
2023-10-23T05:53:41.739Z,8.50
2023-10-23T05:59:04.705Z,8.75
2023-10-23T06:04:26.364Z,8.57
2023-10-23T06:09:48.170Z,7.93
2023-10-23T06:15:11.330Z,7.55
2023-10-23T06:20:35.778Z,7.70
2023-10-23T06:25:57.505Z,8.27
2023-10-23T06:31:19.252Z,7.82
2023-10-23T06:36:43.048Z,8.32
2023-10-23T06:42:05.516Z,8.18
2023-10-23T06:47:27.949Z,8.13
2023-10-23T06:52:49.539Z,8.50
2023-10-23T06:58:11.116Z,8.40
2023-10-23T07:03:32.845Z,8.38
2023-10-23T07:08:54.520Z,7.55
2023-10-23T07:14:16.320Z,8.18
2023-10-23T07:19:38.214Z,7.80
2023-10-23T07:25:00.704Z,8.02
2023-10-23T07:30:25.524Z,8.65
2023-10-23T07:35:53.442Z,8.65
2023-10-23T07:41:15.321Z,8.43
2023-10-23T07:46:37.064Z,9.07
2023-10-23T07:51:58.761Z,8.88
2023-10-23T07:57:20.373Z,9.05
2023-10-23T08:02:42.170Z,8.73
2023-10-23T08:08:05.297Z,9.27
2023-10-23T08:13:26.947Z,10.18
2023-10-23T08:18:48.567Z,10.38
2023-10-23T08:24:10.729Z,10.32
2023-10-23T08:29:32.402Z,10.20
2023-10-23T08:34:55.674Z,10.60
2023-10-23T08:40:17.320Z,10.82
2023-10-23T08:45:39.656Z,11.35
2023-10-23T08:51:01.284Z,12.15
2023-10-23T08:56:25.641Z,10.88
2023-10-23T09:01:47.503Z,11.70
2023-10-23T09:07:09.140Z,12.30
2023-10-23T09:12:32.124Z,11.98
2023-10-23T09:17:54.602Z,13.82
2023-10-23T09:23:16.359Z,13.63
2023-10-23T09:28:37.991Z,13.82
2023-10-23T09:34:01.557Z,13.43
2023-10-23T09:39:23.755Z,13.25
2023-10-23T09:44:46.883Z,13.23
2023-10-23T09:50:09.502Z,13.40
2023-10-23T09:55:36.353Z,14.18
2023-10-23T10:01:01.449Z,14.57
2023-10-23T10:06:25.632Z,16.70
2023-10-23T10:11:47.273Z,15.85
2023-10-23T10:17:11.448Z,15.40
2023-10-23T10:22:37.062Z,16.08
2023-10-23T10:28:00.205Z,15.68
2023-10-23T10:34:24.397Z,15.63
2023-10-23T10:44:29.173Z,14.15
2023-10-23T10:49:51.888Z,14.65
2023-10-23T10:55:14.056Z,15.48
2023-10-23T11:00:37.353Z,16.25
2023-10-23T11:05:59.272Z,15.13
2023-10-23T11:11:20.860Z,15.07
2023-10-23T11:16:42.550Z,14.98
2023-10-23T11:22:12.254Z,16.52
2023-10-23T11:27:34.629Z,15.00
2023-10-23T11:32:57.790Z,15.15
2023-10-23T11:38:23.766Z,14.80
2023-10-23T11:49:06.930Z,15.85
2023-10-23T11:54:29.418Z,16.33
2023-10-23T11:59:51.156Z,16.55
2023-10-23T12:05:16.158Z,16.70
2023-10-23T12:10:39.406Z,17.17
2023-10-23T12:16:01.265Z,17.48
2023-10-23T12:21:23.087Z,17.67
2023-10-23T12:26:44.656Z,17.67
2023-10-23T12:32:06.545Z,17.27
2023-10-23T12:37:28.455Z,17.15
2023-10-23T12:42:50.151Z,17.58
2023-10-23T12:48:11.942Z,16.85
2023-10-23T12:53:34.870Z,16.50
2023-10-23T12:58:56.518Z,17.73
2023-10-23T13:04:22.562Z,18.23
2023-10-23T13:09:44.247Z,21.15
2023-10-23T13:15:06.239Z,24.63
2023-10-23T13:21:30.613Z,25.92
2023-10-23T13:26:13.874Z,28.23
2023-10-23T13:31:36.311Z,29.10
2023-10-23T13:36:57.971Z,23.30
2023-10-23T13:42:19.696Z,19.60
2023-10-23T13:47:41.304Z,19.00
2023-10-23T13:53:02.936Z,17.98
2023-10-23T13:58:24.685Z,16.75
2023-10-23T14:03:46.840Z,16.73
2023-10-23T14:09:41.977Z,15.23
2023-10-23T14:14:50.658Z,14.88
2023-10-23T14:20:12.939Z,15.18
2023-10-23T14:25:34.545Z,14.63
2023-10-23T14:30:56.352Z,14.48
2023-10-23T14:36:17.962Z,14.52
2023-10-23T14:41:39.551Z,15.18
2023-10-23T14:47:01.202Z,16.10
2023-10-23T14:52:22.894Z,16.45
2023-10-23T14:57:45.404Z,15.60
2023-10-23T15:03:07.605Z,15.27
2023-10-23T15:08:29.231Z,16.63
2023-10-23T15:13:51.603Z,16.27
2023-10-23T15:19:13.276Z,14.98
2023-10-23T15:24:34.906Z,14.52
2023-10-23T15:29:56.521Z,13.98
2023-10-23T15:35:18.142Z,14.60
2023-10-23T15:40:39.785Z,14.88
2023-10-23T15:46:01.704Z,15.25
2023-10-23T15:51:23.534Z,17.17
2023-10-23T15:56:46.827Z,15.95
2023-10-23T16:02:08.828Z,16.30
2023-10-23T16:07:30.536Z,15.82
2023-10-23T16:12:52.171Z,17.42
2023-10-23T16:18:16.100Z,16.90
2023-10-23T16:23:37.752Z,18.38
2023-10-23T16:28:59.353Z,18.65
2023-10-23T16:34:20.972Z,19.15
2023-10-23T16:39:42.661Z,18.73
2023-10-23T16:45:04.696Z,18.30
2023-10-23T16:50:25.480Z,18.70
2023-10-23T16:55:53.772Z,18.55
2023-10-23T17:01:15.845Z,19.92
2023-10-23T17:06:38.701Z,19.70
2023-10-23T17:12:00.643Z,18.92
2023-10-23T17:17:22.621Z,18.73
2023-10-23T17:22:45.997Z,18.00
2023-10-23T17:28:11.330Z,19.20
2023-10-23T17:33:34.291Z,18.15
2023-10-23T17:38:57.186Z,18.02
2023-10-23T17:44:20.415Z,17.08
2023-10-23T17:49:44.012Z,16.40
2023-10-23T17:55:06.678Z,17.15
2023-10-23T18:00:28.847Z,16.70
2023-10-23T18:06:00.328Z,16.23
2023-10-23T18:11:22.249Z,15.73
2023-10-23T18:16:44.378Z,16.42
2023-10-23T18:22:06.503Z,15.32
2023-10-23T18:27:28.594Z,15.68
2023-10-23T18:32:50.617Z,15.38
2023-10-23T18:38:13.104Z,15.85
2023-10-23T18:43:35.072Z,15.43
2023-10-23T18:48:59.196Z,14.65
2023-10-23T18:54:21.264Z,14.82
2023-10-23T18:59:43.461Z,14.65
2023-10-23T19:05:05.843Z,14.25
2023-10-23T19:10:27.887Z,13.68
2023-10-23T19:16:00.187Z,13.27
2023-10-23T19:21:22.169Z,12.40
2023-10-23T19:26:45.236Z,12.13
2023-10-23T19:32:08.016Z,11.90
2023-10-23T19:37:30.410Z,12.18
2023-10-23T19:42:54.196Z,10.90
2023-10-23T19:48:16.906Z,10.68
2023-10-23T19:53:39.316Z,9.68
2023-10-23T19:59:03.807Z,9.98
2023-10-23T20:04:26.370Z,9.23
2023-10-23T20:09:48.488Z,8.93
2023-10-23T20:15:10.933Z,8.80
2023-10-23T20:20:32.949Z,8.82
2023-10-23T20:25:54.860Z,8.65
2023-10-23T20:31:18.965Z,8.18
2023-10-23T20:36:41.096Z,8.70
2023-10-23T20:42:03.073Z,8.82
2023-10-23T20:47:24.999Z,7.82
2023-10-23T20:52:46.959Z,7.72
2023-10-23T20:58:08.990Z,7.82
2023-10-23T21:03:30.993Z,8.77
2023-10-23T21:08:53.926Z,8.80
2023-10-23T21:14:15.867Z,7.80
2023-10-23T21:19:37.848Z,8.10
2023-10-23T21:24:59.854Z,8.50
2023-10-23T21:30:22.636Z,8.27
2023-10-23T21:35:44.658Z,8.38
2023-10-23T21:41:07.688Z,7.68
2023-10-23T21:46:30.091Z,7.80
2023-10-23T21:51:52.213Z,8.48
2023-10-23T21:57:20.510Z,8.05
2023-10-23T22:02:44.519Z,7.60
2023-10-23T22:08:06.887Z,7.90
2023-10-23T22:13:29.044Z,7.38
2023-10-23T22:18:51.883Z,7.18
2023-10-23T22:24:13.780Z,7.20
2023-10-23T22:29:35.658Z,7.55
2023-10-23T22:34:57.672Z,7.05
2023-10-23T22:40:19.745Z,6.57
2023-10-23T22:45:55.154Z,7.07
2023-10-23T22:51:21.740Z,7.38
2023-10-23T22:56:46.776Z,7.05
2023-10-23T23:02:09.240Z,7.27
2023-10-23T23:07:37.001Z,7.07
2023-10-23T23:12:59.292Z,6.38
2023-10-23T23:18:22.567Z,7.40
2023-10-23T23:23:44.556Z,6.95
2023-10-23T23:29:06.496Z,7.38
2023-10-23T23:34:28.577Z,7.78
2023-10-23T23:39:50.552Z,7.45
2023-10-23T23:45:12.470Z,7.35
2023-10-23T23:50:34.425Z,7.28
2023-10-23T23:55:56.433Z,7.18
